• Join FlightAware (Why Join?)
  • Login
  • US Flag 
02:06AM EST


 

Airport Tracker/Info


-or-


 

Live Flight TrackerFlight Track Log ✈ N456KT ✈ 09-May-2014 ✈ KOSU - KFWA

Flight Track Log - Related Links

Times and Time Zones

All times are in EDT time to prevent confusion due to time zone crossing. See the N456KT flight status page for this flight to view local times or setup timezone preferences in your user account.

Time Position Orientation Groundspeed Altitude Reporting Facility
EDT Latitude Longitude Course Direction KTS MPH feet Rate Location/Type
09:30PM 40.0758 -83.0831 274° West 135 155 1,200  Level Indianapolis Center
09:31PM 40.0781 -83.1267 274° West 204 235 3,800 4,740 Climbing Indianapolis Center
09:32PM 40.0711 -83.2169 264° West 237 273 9,100 4,680 Climbing Indianapolis Center
09:33PM 40.0653 -83.3086 265° West 259 298 13,500 3,360 Climbing Indianapolis Center
09:34PM 40.0586 -83.4111 265° West 279 321 16,100 1,200 Climbing Indianapolis Center
09:35PM 40.0500 -83.5322 265° West 333 383 16,000 -60 Descending Indianapolis Center
09:36PM 40.0669 -83.6575 280° West 351 404 16,000  Level Indianapolis Center
09:37PM 40.0892 -83.7769 284° West 346 398 16,000  Level Indianapolis Center
09:38PM 40.1503 -83.9056 302° West 348 400 16,000  Level Indianapolis Center
09:39PM 40.1989 -84.0136 301° West 348 400 16,000  Level Indianapolis Center
09:40PM 40.2475 -84.1225 300° West 348 400 16,000  Level Indianapolis Center
09:41PM 40.2981 -84.2353 300° West 355 409 16,000  Level Indianapolis Center
09:42PM 40.3511 -84.3475 302° West 361 415 16,000  Level Indianapolis Center
09:43PM 40.4039 -84.4544 303° West 355 409 16,000  Level Indianapolis Center
09:44PM 40.4583 -84.5586 305° West 350 403 16,000  Level Indianapolis Center
09:45PM 40.5103 -84.6650 303° West 349 402 16,000 -540 Level Indianapolis Center
09:46PM 40.5614 -84.7717 302° West 348 400 14,900 -1,500 Descending Indianapolis Center
09:47PM 40.6181 -84.9011 300° West 344 396 13,000 -1,500 Descending Indianapolis Center
09:48PM 40.6550 -84.9814 301° West 313 360 11,900 -1,080 Descending Indianapolis Center
09:49PM 40.6950 -85.0656 302° West 283 326 10,900 -1,200 Descending Indianapolis Center
09:50PM 40.7383 -85.1547 303° West 280 322 9,400 -1,860 Descending Chicago Center
09:51PM 40.8189 -85.1783 347° North 300 345 7,000 -2,280 Descending Chicago Center
09:52PM 40.8953 -85.1242 28° Northeast 309 356 4,800 -1,980 Descending Chicago Center
09:53PM 40.9625 -85.0736 30° Northeast 297 342 3,000 -1,260 Descending Chicago Center
09:54PM 41.0189 -85.0506 17° North 253 291 2,200 -480 Descending Chicago Center
09:55PM 41.0444 -85.0983 305° West 196 226 2,100 -240 Descending Chicago Center
09:56PM 41.0197 -85.1367 229° Southwest 157 181 1,800 -300 Descending Chicago Center
09:57PM 40.9908 -85.1731 224° Southwest 145 167 1,500 -300 Descending Chicago Center
09:59PM 40.9667 -85.1833 217° Southwest  Level FlightAware Approximate